Time;durP1;ratioP1;P1;durP2;ratioP2;P2;SDS_P1;SDS_P2;PMS_P1;PMS_P2;Temp;Humidity;BMP_temperature;BMP_pressure;BME280_temperature;BME280_humidity;BME280_pressure;Samples;Min_cycle;Max_cycle;Signal;HPM_P1;HPM_P2
2023/07/25 00:02:23;;;;;;;8.38;5.55;;;13.10;99.90;;;;;;4862881;28;88269;-37
2023/07/25 00:04:49;;;;;;;8.23;5.40;;;13.00;99.90;;;;;;4865074;28;91626;-34
2023/07/25 00:07:14;;;;;;;9.77;5.45;;;13.00;99.90;;;;;;4863865;28;91083;-35
2023/07/25 00:09:40;;;;;;;12.63;6.00;;;12.90;99.90;;;;;;4865000;28;90783;-33
2023/07/25 00:12:06;;;;;;;8.18;4.82;;;12.90;99.90;;;;;;4864127;28;89280;-42
2023/07/25 00:14:33;;;;;;;8.85;5.55;;;12.90;99.90;;;;;;4853997;28;90200;-32
2023/07/25 00:16:59;;;;;;;10.85;5.03;;;12.90;99.90;;;;;;4858488;28;90248;-39
2023/07/25 00:19:25;;;;;;;5.38;4.85;;;12.80;99.90;;;;;;4857488;28;89259;-35
2023/07/25 00:21:51;;;;;;;8.68;4.55;;;12.80;99.90;;;;;;4864737;28;89953;-34
2023/07/25 00:24:17;;;;;;;9.35;5.25;;;12.80;99.90;;;;;;4864453;28;88932;-32
2023/07/25 00:26:43;;;;;;;10.35;5.68;;;12.80;99.90;;;;;;4862480;28;89656;-43
2023/07/25 00:29:08;;;;;;;6.45;4.35;;;12.70;99.90;;;;;;4859422;28;91552;-33
2023/07/25 00:31:34;;;;;;;8.98;4.78;;;12.80;99.90;;;;;;4850485;28;89983;-34
2023/07/25 00:34:00;;;;;;;14.07;5.43;;;12.70;99.90;;;;;;4846177;28;90274;-40
2023/07/25 00:36:25;;;;;;;10.30;4.95;;;12.70;99.90;;;;;;4845725;28;89548;-43
2023/07/25 00:38:51;;;;;;;8.00;5.05;;;12.70;99.90;;;;;;4856978;28;90107;-35
2023/07/25 00:41:17;;;;;;;9.48;5.78;;;12.70;99.90;;;;;;4858711;28;88447;-34
2023/07/25 00:43:42;;;;;;;9.55;5.47;;;12.70;99.90;;;;;;4864423;28;90703;-34
2023/07/25 00:46:08;;;;;;;6.30;5.45;;;12.60;99.90;;;;;;4863470;28;89843;-34
2023/07/25 00:48:34;;;;;;;5.05;4.53;;;12.60;99.90;;;;;;4863276;28;89730;-41
2023/07/25 00:50:59;;;;;;;6.93;4.90;;;12.50;99.90;;;;;;4864299;28;89683;-33
2023/07/25 00:53:26;;;;;;;9.20;5.47;;;12.50;99.90;;;;;;4863386;28;90353;-37
2023/07/25 00:55:52;;;;;;;9.30;5.30;;;12.50;99.90;;;;;;4862785;28;91130;-35
2023/07/25 00:58:18;;;;;;;7.97;5.65;;;12.40;99.90;;;;;;4863841;28;90013;-42
2023/07/25 01:00:44;;;;;;;8.73;5.68;;;12.40;99.90;;;;;;4863652;28;89568;-39
2023/07/25 01:03:11;;;;;;;6.75;4.95;;;12.40;99.90;;;;;;4863960;28;90272;-37
2023/07/25 01:05:41;;;;;;;10.13;5.78;;;12.40;99.90;;;;;;4863600;28;89980;-37
2023/07/25 01:08:07;;;;;;;9.25;5.68;;;12.40;99.90;;;;;;4863208;28;89590;-35
2023/07/25 01:10:34;;;;;;;6.15;5.20;;;12.40;99.90;;;;;;4847282;28;89123;-33
2023/07/25 01:13:00;;;;;;;7.43;5.55;;;12.40;99.90;;;;;;4846230;28;89880;-47
2023/07/25 01:15:28;;;;;;;10.05;4.70;;;12.40;99.90;;;;;;4850617;28;91221;-38
2023/07/25 01:17:54;;;;;;;8.38;4.72;;;12.40;99.90;;;;;;4852420;28;88995;-42
2023/07/25 01:20:20;;;;;;;7.25;5.28;;;12.40;99.90;;;;;;4846424;28;90215;-37
2023/07/25 01:22:47;;;;;;;7.40;5.55;;;12.40;99.90;;;;;;4845455;28;90240;-35
2023/07/25 01:25:14;;;;;;;10.20;5.15;;;12.40;99.90;;;;;;4852386;28;90844;-38
2023/07/25 01:27:39;;;;;;;7.68;5.25;;;12.30;99.90;;;;;;4852673;28;89479;-45
2023/07/25 01:30:06;;;;;;;12.35;5.97;;;12.30;99.90;;;;;;4858717;28;88869;-39
2023/07/25 01:32:32;;;;;;;7.85;5.32;;;12.30;99.90;;;;;;4863440;28;91406;-38
2023/07/25 01:34:58;;;;;;;12.40;5.82;;;12.30;99.90;;;;;;4862891;28;89807;-39
2023/07/25 01:37:24;;;;;;;5.10;4.57;;;12.30;99.90;;;;;;4863280;28;89817;-36
2023/07/25 01:39:50;;;;;;;11.50;5.18;;;12.30;99.90;;;;;;4860865;28;89389;-37
2023/07/25 01:42:16;;;;;;;8.63;5.15;;;12.30;99.90;;;;;;4844978;28;90338;-36
2023/07/25 01:44:41;;;;;;;7.72;4.85;;;12.30;99.90;;;;;;4845812;28;90629;-43
2023/07/25 01:47:07;;;;;;;12.13;6.70;;;12.30;99.90;;;;;;4863369;28;90656;-41
2023/07/25 01:49:33;;;;;;;8.23;5.13;;;12.30;99.90;;;;;;4848083;28;89164;-39
2023/07/25 01:51:58;;;;;;;10.65;5.25;;;12.20;99.90;;;;;;4844227;28;90508;-40
2023/07/25 01:54:24;;;;;;;6.25;5.38;;;12.30;99.90;;;;;;4844172;28;89426;-33
2023/07/25 01:56:50;;;;;;;6.72;4.30;;;12.20;99.90;;;;;;4853137;28;89607;-36
2023/07/25 01:59:16;;;;;;;11.15;6.18;;;12.20;99.90;;;;;;4850289;28;89291;-43
2023/07/25 02:01:42;;;;;;;10.65;5.70;;;12.20;99.90;;;;;;4863207;28;91597;-37
2023/07/25 02:04:08;;;;;;;7.22;4.53;;;12.20;99.90;;;;;;4862495;28;89283;-47
2023/07/25 02:06:33;;;;;;;7.40;6.53;;;12.10;99.90;;;;;;4862685;28;89517;-37
2023/07/25 02:08:59;;;;;;;8.43;5.75;;;12.00;99.90;;;;;;4860994;28;90612;-32
2023/07/25 02:11:24;;;;;;;9.07;6.35;;;12.10;99.90;;;;;;4863061;28;90283;-33
2023/07/25 02:13:50;;;;;;;7.28;6.00;;;12.10;99.90;;;;;;4861865;28;89466;-34
2023/07/25 02:16:16;;;;;;;7.03;6.32;;;12.00;99.90;;;;;;4862435;28;90146;-47
2023/07/25 02:18:41;;;;;;;15.27;6.20;;;12.00;99.90;;;;;;4862557;28;89435;-40
2023/07/25 02:21:07;;;;;;;10.98;6.30;;;12.00;99.90;;;;;;4862135;28;89682;-46
2023/07/25 02:23:33;;;;;;;7.97;5.45;;;11.90;99.90;;;;;;4861955;28;91675;-33
2023/07/25 02:25:58;;;;;;;10.15;6.00;;;11.90;99.90;;;;;;4862557;28;89479;-33
2023/07/25 02:28:24;;;;;;;9.43;5.85;;;11.90;99.90;;;;;;4861602;28;89073;-43
2023/07/25 02:30:49;;;;;;;6.05;5.05;;;11.90;99.90;;;;;;4862423;28;88991;-46
2023/07/25 02:33:15;;;;;;;10.32;6.97;;;11.90;99.90;;;;;;4850130;28;90578;-42
2023/07/25 02:35:41;;;;;;;9.48;6.32;;;11.80;99.90;;;;;;4861605;28;91960;-35
2023/07/25 02:38:07;;;;;;;6.30;5.60;;;11.90;99.90;;;;;;4848511;28;88210;-35
2023/07/25 02:40:33;;;;;;;7.63;6.20;;;11.80;99.90;;;;;;4844284;28;89910;-37
2023/07/25 02:42:58;;;;;;;7.55;6.22;;;11.90;99.90;;;;;;4845704;28;90268;-33
2023/07/25 02:45:24;;;;;;;6.68;5.15;;;11.80;99.90;;;;;;4854814;28;90114;-46
2023/07/25 02:47:50;;;;;;;9.73;6.50;;;11.80;99.90;;;;;;4845898;28;88726;-38
2023/07/25 02:50:15;;;;;;;4.65;4.15;;;11.80;99.90;;;;;;4854576;28;88952;-41
2023/07/25 02:52:42;;;;;;;7.75;5.50;;;11.80;99.90;;;;;;4845202;28;88655;-39
2023/07/25 02:55:08;;;;;;;11.02;6.03;;;11.80;99.90;;;;;;4843516;28;89398;-40
2023/07/25 02:57:33;;;;;;;5.70;5.20;;;11.80;99.90;;;;;;4846462;28;89106;-40
2023/07/25 02:59:59;;;;;;;11.90;6.43;;;11.80;99.90;;;;;;4853972;28;89374;-32
2023/07/25 03:02:25;;;;;;;10.25;5.90;;;11.80;99.90;;;;;;4857801;28;90075;-46
2023/07/25 03:04:50;;;;;;;7.82;5.82;;;11.80;99.90;;;;;;4861064;28;90495;-32
2023/07/25 03:07:16;;;;;;;9.38;6.70;;;11.80;99.90;;;;;;4858947;28;89567;-32
2023/07/25 03:09:41;;;;;;;8.48;5.30;;;11.80;99.90;;;;;;4860012;28;90591;-38
2023/07/25 03:12:07;;;;;;;12.10;6.57;;;11.80;99.90;;;;;;4856143;28;90119;-33
2023/07/25 03:14:33;;;;;;;8.27;5.22;;;11.80;99.90;;;;;;4860158;28;89884;-37
2023/07/25 03:16:59;;;;;;;10.10;5.88;;;11.90;99.90;;;;;;4862381;28;89588;-35
2023/07/25 03:19:24;;;;;;;11.02;5.60;;;11.80;99.90;;;;;;4865719;28;90368;-37
2023/07/25 03:21:50;;;;;;;11.18;5.90;;;11.80;99.90;;;;;;4860729;28;91073;-35
2023/07/25 03:24:16;;;;;;;6.00;5.40;;;11.80;99.90;;;;;;4862671;28;90521;-34
2023/07/25 03:26:42;;;;;;;8.90;6.10;;;11.70;99.90;;;;;;4864130;28;88912;-40
2023/07/25 03:29:07;;;;;;;6.80;3.83;;;11.80;99.90;;;;;;4863860;28;91056;-34
2023/07/25 03:31:33;;;;;;;7.45;4.63;;;11.70;99.90;;;;;;4852191;28;89397;-31
2023/07/25 03:33:59;;;;;;;12.27;5.95;;;11.70;99.90;;;;;;4859602;28;89376;-33
2023/07/25 03:36:25;;;;;;;8.23;3.92;;;11.70;99.90;;;;;;4847258;28;89696;-34
2023/07/25 03:38:50;;;;;;;8.35;5.25;;;11.70;99.90;;;;;;4847356;28;89775;-39
2023/07/25 03:41:16;;;;;;;9.75;5.15;;;11.60;99.90;;;;;;4846254;28;90532;-38
2023/07/25 03:43:42;;;;;;;8.25;5.22;;;11.70;99.90;;;;;;4846881;28;90203;-38
2023/07/25 03:46:07;;;;;;;8.70;3.95;;;11.70;99.90;;;;;;4846902;28;89326;-34
2023/07/25 03:48:33;;;;;;;9.70;5.82;;;11.60;99.90;;;;;;4847406;28;89096;-37
2023/07/25 03:50:59;;;;;;;6.35;5.35;;;11.70;99.90;;;;;;4859928;28;89795;-36
2023/07/25 03:53:24;;;;;;;8.10;5.53;;;11.60;99.90;;;;;;4864012;28;89950;-40
2023/07/25 03:55:50;;;;;;;8.98;6.13;;;11.60;99.90;;;;;;4853774;28;88402;-35
2023/07/25 03:58:16;;;;;;;11.70;6.10;;;11.70;99.90;;;;;;4853523;28;90254;-35
2023/07/25 04:00:41;;;;;;;7.25;5.75;;;11.70;99.90;;;;;;4855308;28;89810;-39
2023/07/25 04:03:07;;;;;;;8.13;5.20;;;11.70;99.90;;;;;;4861725;28;89502;-32
2023/07/25 04:05:33;;;;;;;11.38;5.85;;;11.70;99.90;;;;;;4865112;28;89119;-34
2023/07/25 04:07:59;;;;;;;11.48;6.15;;;11.70;99.90;;;;;;4864123;28;89448;-42
2023/07/25 04:10:26;;;;;;;4.57;3.45;;;11.70;99.90;;;;;;4864334;28;90542;-38
2023/07/25 04:12:52;;;;;;;8.85;5.68;;;11.70;99.90;;;;;;4863483;28;91422;-37
2023/07/25 04:15:18;;;;;;;6.63;3.88;;;11.70;99.90;;;;;;4864860;28;88636;-39
2023/07/25 04:17:43;;;;;;;9.73;6.05;;;11.70;99.90;;;;;;4863479;28;90383;-38
2023/07/25 04:20:09;;;;;;;8.32;6.05;;;11.80;99.90;;;;;;4864934;28;89729;-35
2023/07/25 04:22:35;;;;;;;10.25;4.20;;;11.90;99.90;;;;;;4864035;28;89829;-40
2023/07/25 04:25:01;;;;;;;11.88;5.30;;;11.90;99.90;;;;;;4864706;28;89492;-47
2023/07/25 04:27:30;;;;;;;8.70;5.57;;;11.90;99.90;;;;;;4863758;28;89677;-34
2023/07/25 04:29:56;;;;;;;9.73;6.15;;;12.00;99.90;;;;;;4863847;28;89199;-35
2023/07/25 04:32:22;;;;;;;8.85;5.25;;;12.00;99.90;;;;;;4863652;28;89591;-38
2023/07/25 04:34:47;;;;;;;6.43;5.00;;;12.00;99.90;;;;;;4864490;28;90529;-44
2023/07/25 04:37:13;;;;;;;5.93;4.72;;;12.10;99.90;;;;;;4863179;28;90685;-44
2023/07/25 04:39:38;;;;;;;8.00;5.28;;;12.10;99.90;;;;;;4864323;28;90106;-45
2023/07/25 04:42:04;;;;;;;11.38;5.68;;;12.10;99.90;;;;;;4863958;28;89968;-36
2023/07/25 04:44:30;;;;;;;8.55;6.20;;;12.10;99.90;;;;;;4863663;28;88098;-37
2023/07/25 04:46:56;;;;;;;11.98;6.55;;;12.20;99.90;;;;;;4864596;28;90785;-41
2023/07/25 04:49:21;;;;;;;10.02;5.10;;;12.20;99.90;;;;;;4863526;28;90000;-44
2023/07/25 04:51:47;;;;;;;7.82;5.55;;;12.20;99.90;;;;;;4863547;28;90421;-36
2023/07/25 04:54:13;;;;;;;12.02;6.60;;;12.30;99.90;;;;;;4864432;28;88522;-36
2023/07/25 04:56:41;;;;;;;6.68;3.25;;;12.30;99.90;;;;;;4863575;28;90782;-47
2023/07/25 04:59:07;;;;;;;7.10;4.90;;;12.30;99.90;;;;;;4863427;28;91194;-39
2023/07/25 05:01:32;;;;;;;7.43;5.07;;;12.40;99.90;;;;;;4863851;28;90376;-34
2023/07/25 05:03:58;;;;;;;8.70;4.70;;;12.40;99.90;;;;;;4854510;28;89688;-48
2023/07/25 05:06:24;;;;;;;6.32;4.30;;;12.50;99.90;;;;;;4846022;28;90329;-35
2023/07/25 05:08:49;;;;;;;9.57;5.30;;;12.50;99.90;;;;;;4842841;28;89325;-42
2023/07/25 05:11:15;;;;;;;5.10;4.32;;;12.50;99.90;;;;;;4851565;28;89787;-41
2023/07/25 05:13:40;;;;;;;8.30;4.80;;;12.60;99.90;;;;;;4848127;28;89957;-36
2023/07/25 05:16:06;;;;;;;12.98;5.70;;;12.60;99.90;;;;;;4844865;28;90870;-46
2023/07/25 05:18:32;;;;;;;7.50;5.13;;;12.70;99.90;;;;;;4846030;28;90257;-38
2023/07/25 05:20:57;;;;;;;17.35;5.30;;;12.70;99.90;;;;;;4853509;28;89967;-45
2023/07/25 05:23:23;;;;;;;8.27;4.57;;;12.80;99.90;;;;;;4850985;28;90554;-35
2023/07/25 05:25:49;;;;;;;7.88;4.53;;;12.80;99.90;;;;;;4860199;28;89313;-33
2023/07/25 05:28:14;;;;;;;5.63;4.32;;;12.90;99.90;;;;;;4855192;28;90758;-44
2023/07/25 05:30:40;;;;;;;5.85;3.15;;;12.90;99.90;;;;;;4861515;28;89328;-43
2023/07/25 05:33:07;;;;;;;5.63;4.13;;;12.90;99.90;;;;;;4861364;28;89190;-42
2023/07/25 05:35:32;;;;;;;10.32;4.47;;;13.00;99.90;;;;;;4847324;28;90374;-35
2023/07/25 05:37:58;;;;;;;8.05;4.38;;;13.00;99.90;;;;;;4854710;28;90224;-35
2023/07/25 05:40:24;;;;;;;16.73;4.75;;;13.10;99.90;;;;;;4860352;28;89770;-41
2023/07/25 05:42:49;;;;;;;10.63;4.75;;;13.10;99.90;;;;;;4860276;28;89438;-44
2023/07/25 05:45:15;;;;;;;7.18;4.20;;;13.20;99.90;;;;;;4861131;28;90437;-40
2023/07/25 05:47:41;;;;;;;13.82;5.05;;;13.30;99.90;;;;;;4859937;28;91505;-35
2023/07/25 05:50:07;;;;;;;11.32;4.78;;;13.30;99.90;;;;;;4853634;28;90235;-34
2023/07/25 05:52:33;;;;;;;9.50;4.35;;;13.40;99.90;;;;;;4843741;28;89536;-36
2023/07/25 05:54:58;;;;;;;7.07;4.72;;;13.50;99.90;;;;;;4849081;28;90748;-37
2023/07/25 05:57:24;;;;;;;6.88;4.15;;;13.60;99.90;;;;;;4860239;28;90483;-35
2023/07/25 05:59:49;;;;;;;8.88;4.90;;;13.70;99.90;;;;;;4842616;28;89908;-41
2023/07/25 06:02:16;;;;;;;10.55;4.05;;;13.70;99.90;;;;;;4854959;28;89516;-46
2023/07/25 06:04:45;;;;;;;6.15;4.35;;;13.80;99.90;;;;;;4850606;28;90381;-38
2023/07/25 06:07:14;;;;;;;13.00;4.90;;;13.90;99.90;;;;;;4849789;28;89395;-40
2023/07/25 06:09:40;;;;;;;8.88;4.13;;;14.00;99.90;;;;;;4852438;28;89945;-33
2023/07/25 06:12:09;;;;;;;7.32;4.72;;;14.30;99.90;;;;;;4846847;28;89625;-39
2023/07/25 06:14:36;;;;;;;24.45;7.78;;;14.60;99.90;;;;;;4851073;28;91028;-34
2023/07/25 06:17:02;;;;;;;12.88;4.57;;;14.70;99.90;;;;;;4855679;28;90061;-38
2023/07/25 06:19:27;;;;;;;8.75;4.30;;;14.90;99.90;;;;;;4843171;28;89222;-36
2023/07/25 06:21:53;;;;;;;8.60;3.97;;;14.90;99.90;;;;;;4845484;28;90141;-39
2023/07/25 06:24:19;;;;;;;6.07;3.33;;;14.90;99.90;;;;;;4843094;28;90111;-31
2023/07/25 06:26:45;;;;;;;5.57;3.58;;;15.10;99.90;;;;;;4848841;28;88570;-34
2023/07/25 06:29:10;;;;;;;9.50;3.75;;;15.20;99.90;;;;;;4857275;28;89629;-38
2023/07/25 06:31:36;;;;;;;7.82;3.85;;;15.40;99.90;;;;;;4848107;28;88484;-34
2023/07/25 06:34:02;;;;;;;7.05;3.45;;;15.60;99.90;;;;;;4854026;28;91142;-34
2023/07/25 06:36:28;;;;;;;7.85;3.05;;;15.80;99.90;;;;;;4841001;28;91397;-37
2023/07/25 06:38:53;;;;;;;8.15;4.55;;;16.00;99.90;;;;;;4848536;28;90147;-37
2023/07/25 06:41:19;;;;;;;9.70;3.83;;;16.10;99.90;;;;;;4860231;28;90667;-34
2023/07/25 06:43:45;;;;;;;6.95;4.20;;;16.20;99.90;;;;;;4842637;28;90347;-34
2023/07/25 06:46:10;;;;;;;11.02;3.88;;;16.30;99.90;;;;;;4844837;28;89866;-33
2023/07/25 06:48:36;;;;;;;7.22;4.03;;;16.50;99.90;;;;;;4849815;28;89974;-35
2023/07/25 06:51:02;;;;;;;4.97;3.65;;;16.70;99.90;;;;;;4851743;28;88432;-36
2023/07/25 06:53:28;;;;;;;5.50;2.78;;;16.90;99.90;;;;;;4851067;28;90072;-38
2023/07/25 06:55:53;;;;;;;4.38;2.75;;;17.10;99.90;;;;;;4850792;28;90158;-37
2023/07/25 06:58:19;;;;;;;6.30;3.38;;;17.30;99.90;;;;;;4859110;28;89542;-35
2023/07/25 07:00:46;;;;;;;4.90;2.45;;;17.60;99.90;;;;;;4858521;28;90184;-39
2023/07/25 07:03:12;;;;;;;7.30;3.22;;;17.50;99.90;;;;;;4859658;28;90696;-39
2023/07/25 07:05:38;;;;;;;10.35;3.28;;;17.70;99.90;;;;;;4860441;28;89622;-37
2023/07/25 07:08:03;;;;;;;6.80;3.40;;;18.00;99.90;;;;;;4860104;28;89133;-36
2023/07/25 07:10:32;;;;;;;6.68;2.33;;;18.30;99.90;;;;;;4855852;28;88592;-38
2023/07/25 07:12:57;;;;;;;4.03;2.40;;;18.50;99.90;;;;;;4852648;28;89996;-37
2023/07/25 07:15:24;;;;;;;9.90;3.40;;;18.50;99.90;;;;;;4859124;28;89849;-33
2023/07/25 07:17:53;;;;;;;36.58;5.22;;;18.60;99.90;;;;;;4847817;28;89546;-36
2023/07/25 07:20:19;;;;;;;4.95;2.78;;;18.90;99.90;;;;;;4858485;28;89670;-41
2023/07/25 07:22:45;;;;;;;4.55;2.30;;;19.00;99.90;;;;;;4851374;28;91918;-32
2023/07/25 07:25:10;;;;;;;7.55;3.10;;;19.20;99.90;;;;;;4855379;28;90186;-34
2023/07/25 07:27:36;;;;;;;4.75;2.13;;;19.00;99.90;;;;;;4851974;28;90478;-35
2023/07/25 07:30:03;;;;;;;8.73;3.03;;;19.00;99.90;;;;;;4850773;28;87727;-36
2023/07/25 07:32:29;;;;;;;5.57;2.22;;;19.00;99.90;;;;;;4850412;28;90539;-34
2023/07/25 07:34:54;;;;;;;5.75;2.15;;;18.60;99.90;;;;;;4861538;28;89784;-31
2023/07/25 07:37:20;;;;;;;3.00;2.10;;;18.90;99.90;;;;;;4861408;28;89444;-33
2023/07/25 07:39:45;;;;;;;3.30;1.73;;;19.10;99.90;;;;;;4860229;28;90286;-34
2023/07/25 07:42:11;;;;;;;5.88;1.50;;;19.00;99.90;;;;;;4861197;28;91487;-34
2023/07/25 07:44:37;;;;;;;3.15;1.98;;;19.20;99.90;;;;;;4861657;28;89470;-36
2023/07/25 07:47:03;;;;;;;7.57;1.73;;;19.60;99.90;;;;;;4862189;28;90148;-33
2023/07/25 07:49:28;;;;;;;7.00;1.50;;;19.60;99.90;;;;;;4860237;28;90579;-38
2023/07/25 07:51:54;;;;;;;1.33;1.05;;;19.70;99.90;;;;;;4862544;28;90450;-35
2023/07/25 07:54:19;;;;;;;3.40;1.63;;;19.70;99.90;;;;;;4861185;28;89846;-32
2023/07/25 07:56:45;;;;;;;3.20;1.75;;;20.10;99.90;;;;;;4862381;28;90160;-37
2023/07/25 07:59:11;;;;;;;3.65;1.77;;;20.10;99.90;;;;;;4859105;28;90145;-34
2023/07/25 08:01:36;;;;;;;1.30;1.08;;;20.40;99.90;;;;;;4853882;28;89906;-39
2023/07/25 08:04:02;;;;;;;2.20;1.42;;;20.10;99.90;;;;;;4844696;28;89804;-37
2023/07/25 08:06:28;;;;;;;3.15;1.38;;;20.00;99.90;;;;;;4856972;28;90405;-39
2023/07/25 08:08:53;;;;;;;1.92;1.50;;;20.30;99.90;;;;;;4909431;23;89614;-34
2023/07/25 08:11:19;;;;;;;7.78;1.65;;;20.40;99.90;;;;;;4891039;28;89115;-33
2023/07/25 08:13:45;;;;;;;2.33;1.30;;;20.40;99.90;;;;;;4888437;28;90596;-37
2023/07/25 08:16:10;;;;;;;3.60;1.30;;;20.70;99.90;;;;;;4902118;28;90753;-38
2023/07/25 08:18:36;;;;;;;8.50;1.27;;;20.50;99.90;;;;;;4896343;28;89365;-35
2023/07/25 08:21:02;;;;;;;8.63;1.60;;;20.50;99.90;;;;;;4895065;28;91967;-38
2023/07/25 08:23:28;;;;;;;2.70;1.38;;;20.60;99.90;;;;;;4888259;28;89890;-33
2023/07/25 08:25:57;;;;;;;6.32;1.67;;;20.50;99.90;;;;;;4890329;28;89578;-34
2023/07/25 08:28:23;;;;;;;3.67;1.10;;;20.50;99.90;;;;;;4882907;28;88560;-38
2023/07/25 08:30:57;;;;;;;2.85;0.90;;;20.70;99.90;;;;;;4876063;28;90507;-34
2023/07/25 08:33:23;;;;;;;1.30;1.00;;;20.40;99.90;;;;;;4866385;28;89768;-34
2023/07/25 08:35:51;;;;;;;2.83;1.23;;;20.90;99.90;;;;;;4865829;28;90249;-36
2023/07/25 08:38:16;;;;;;;1.88;1.20;;;20.80;99.90;;;;;;4869102;28;89793;-34
2023/07/25 08:40:44;;;;;;;2.33;1.02;;;20.60;99.90;;;;;;4873876;28;90408;-38
2023/07/25 08:43:12;;;;;;;0.98;0.88;;;20.50;99.90;;;;;;4878394;28;89949;-35
2023/07/25 08:45:40;;;;;;;;;;;20.10;99.90;;;;;;4874162;28;89793;-40
2023/07/25 08:48:10;;;;;;;1.00;0.70;;;20.60;99.90;;;;;;4882725;28;89142;-39
2023/07/25 08:50:37;;;;;;;5.45;0.90;;;21.00;99.90;;;;;;4865525;28;90250;-32
2023/07/25 08:53:09;;;;;;;3.00;1.38;;;21.00;99.90;;;;;;4866542;28;89880;-34
2023/07/25 08:55:35;;;;;;;3.67;1.35;;;20.90;99.90;;;;;;4865529;28;88558;-37
2023/07/25 08:58:01;;;;;;;8.70;1.73;;;20.60;99.90;;;;;;4868573;28;90311;-32
2023/07/25 09:00:27;;;;;;;2.22;1.15;;;20.50;99.90;;;;;;4870806;28;88762;-35
2023/07/25 09:02:54;;;;;;;1.80;1.00;;;20.90;99.90;;;;;;4879239;28;90794;-33
2023/07/25 09:05:20;;;;;;;0.70;0.70;;;21.10;99.90;;;;;;4875063;28;90829;-38
2023/07/25 09:07:46;;;;;;;0.98;0.88;;;21.00;99.90;;;;;;4877722;28;88979;-35
2023/07/25 09:10:11;;;;;;;3.83;1.10;;;21.20;99.30;;;;;;4866579;28;90295;-33
2023/07/25 09:12:37;;;;;;;2.75;1.15;;;21.00;99.90;;;;;;4870713;28;89823;-35
2023/07/25 09:15:03;;;;;;;3.55;1.05;;;20.50;98.30;;;;;;4865678;28;89899;-34
2023/07/25 09:17:29;;;;;;;1.50;1.10;;;20.10;99.90;;;;;;4881995;28;88722;-37
2023/07/25 09:19:56;;;;;;;4.50;0.90;;;19.70;99.90;;;;;;4875746;28;90093;-34
2023/07/25 09:22:29;;;;;;;1.20;0.90;;;19.80;99.90;;;;;;4871862;28;89752;-34
2023/07/25 09:24:56;;;;;;;2.25;0.88;;;20.20;99.90;;;;;;4867511;28;89082;-35
2023/07/25 09:27:21;;;;;;;3.50;1.25;;;20.60;99.90;;;;;;4871181;28;88863;-36
2023/07/25 09:29:51;;;;;;;3.15;1.00;;;20.70;98.10;;;;;;4883137;28;91448;-35
2023/07/25 09:32:23;;;;;;;0.68;0.68;;;21.20;89.40;;;;;;4888076;28;89689;-34
2023/07/25 09:35:01;;;;;;;0.80;0.80;;;21.00;92.60;;;;;;4875179;28;89543;-34
2023/07/25 09:37:28;;;;;;;1.92;1.20;;;21.10;82.80;;;;;;4864558;28;88267;-34
2023/07/25 09:39:54;;;;;;;1.95;1.23;;;20.70;97.90;;;;;;4864274;28;90353;-35
2023/07/25 09:42:22;;;;;;;4.22;0.88;;;20.70;90.70;;;;;;4870558;28;89601;-37
2023/07/25 09:44:48;;;;;;;1.33;0.90;;;20.60;96.00;;;;;;4869225;28;89198;-35
2023/07/25 09:47:19;;;;;;;2.88;1.00;;;20.70;97.80;;;;;;4881745;28;89558;-37
2023/07/25 09:49:49;;;;;;;1.10;1.00;;;20.40;99.30;;;;;;4868055;28;90053;-36
2023/07/25 09:52:15;;;;;;;7.45;1.20;;;20.40;99.90;;;;;;4852927;28;92731;-34
2023/07/25 09:54:41;;;;;;;1.42;0.93;;;20.40;99.90;;;;;;4866530;28;89760;-36
2023/07/25 09:57:07;;;;;;;2.25;0.98;;;20.20;99.90;;;;;;4881249;28;89561;-36
2023/07/25 09:59:34;;;;;;;4.20;1.00;;;20.00;99.90;;;;;;4867362;28;90287;-33
2023/07/25 10:02:00;;;;;;;1.35;1.15;;;20.30;99.90;;;;;;4888861;28;89966;-34
2023/07/25 10:04:27;;;;;;;1.30;0.88;;;20.60;99.50;;;;;;4870875;28;89999;-39
2023/07/25 10:06:53;;;;;;;2.65;0.90;;;20.90;99.90;;;;;;4868666;28;89476;-35
2023/07/25 10:09:19;;;;;;;4.18;1.42;;;21.20;90.90;;;;;;4862269;28;90409;-38
2023/07/25 10:11:46;;;;;;;2.58;1.02;;;21.30;87.90;;;;;;4862990;28;89476;-35
2023/07/25 10:14:12;;;;;;;2.22;1.55;;;21.50;93.00;;;;;;4863611;28;89092;-39
2023/07/25 10:16:40;;;;;;;1.50;1.10;;;21.60;88.40;;;;;;4865688;28;89892;-38
2023/07/25 10:19:06;;;;;;;5.43;1.13;;;21.50;91.00;;;;;;4879998;28;92017;-38
2023/07/25 10:21:47;;;;;;;1.85;1.08;;;21.50;95.90;;;;;;4881572;28;90030;-33
2023/07/25 10:24:13;;;;;;;6.32;1.40;;;21.40;88.80;;;;;;4888606;28;89423;-38
2023/07/25 10:26:53;;;;;;;6.40;1.33;;;20.90;93.50;;;;;;4894056;28;90016;-33
2023/07/25 10:29:39;;;;;;;7.75;1.52;;;20.70;90.30;;;;;;4886657;28;90351;-38
2023/07/25 10:32:05;;;;;;;4.80;1.67;;;20.60;96.90;;;;;;4869852;28;89125;-34
2023/07/25 10:34:59;;;;;;;6.82;1.77;;;20.80;99.90;;;;;;4870707;28;91058;-34
2023/07/25 10:37:38;;;;;;;1.75;1.33;;;21.10;94.60;;;;;;4875316;28;88266;-38
2023/07/25 10:40:17;;;;;;;2.70;1.10;;;21.10;90.90;;;;;;4865284;28;89193;-35
2023/07/25 10:42:58;;;;;;;1.23;1.02;;;21.00;87.30;;;;;;4864345;28;90897;-35
2023/07/25 10:45:29;;;;;;;6.90;1.20;;;20.70;78.20;;;;;;4863728;28;89922;-33
2023/07/25 10:47:55;;;;;;;2.58;1.27;;;20.60;88.60;;;;;;4865680;28;88559;-37
2023/07/25 10:50:47;;;;;;;2.10;1.15;;;20.60;77.60;;;;;;4863469;28;90128;-34
2023/07/25 10:53:21;;;;;;;2.42;0.80;;;20.70;81.80;;;;;;4863621;28;89931;-37
2023/07/25 10:56:05;;;;;;;1.73;1.13;;;20.70;76.80;;;;;;4864741;28;89823;-31
2023/07/25 10:59:00;;;;;;;3.92;0.85;;;20.70;77.10;;;;;;4863380;28;89068;-37
2023/07/25 11:01:47;;;;;;;1.83;1.17;;;21.00;99.80;;;;;;4862066;28;90353;-36
2023/07/25 11:04:28;;;;;;;2.47;1.38;;;21.00;86.80;;;;;;4877260;28;89323;-37
2023/07/25 11:07:13;;;;;;;2.20;1.33;;;20.60;94.20;;;;;;4875005;28;89155;-34
2023/07/25 11:09:42;;;;;;;1.98;1.35;;;20.40;96.80;;;;;;4886497;28;88193;-33
2023/07/25 11:12:08;;;;;;;;;;;20.50;99.90;;;;;;4885905;28;90452;-34
2023/07/25 11:14:43;;;;;;;6.63;1.25;;;20.60;99.90;;;;;;4887041;28;89593;-41
2023/07/25 11:17:09;;;;;;;1.83;1.23;;;20.80;98.80;;;;;;4877214;28;89478;-34
2023/07/25 11:19:35;;;;;;;1.00;0.90;;;20.70;98.60;;;;;;4874663;28;89622;-34
2023/07/25 11:22:10;;;;;;;3.45;1.40;;;20.80;99.90;;;;;;4877581;28;91353;-34
2023/07/25 11:24:47;;;;;;;4.50;1.70;;;20.60;99.90;;;;;;4874685;28;89403;-33
2023/07/25 11:27:14;;;;;;;3.53;1.55;;;20.40;99.90;;;;;;4883817;28;89604;-33
2023/07/25 11:29:41;;;;;;;1.25;1.08;;;20.30;99.90;;;;;;4881967;28;89037;-36
2023/07/25 11:32:07;;;;;;;4.32;2.08;;;20.30;99.90;;;;;;4886649;28;88837;-36
2023/07/25 11:34:33;;;;;;;2.08;1.13;;;20.20;99.90;;;;;;4859630;28;90343;-33
2023/07/25 11:36:58;;;;;;;1.95;1.38;;;20.00;99.90;;;;;;4860660;28;89774;-34
2023/07/25 11:39:24;;;;;;;1.25;1.05;;;20.10;99.90;;;;;;4861972;28;89729;-33
2023/07/25 11:41:50;;;;;;;2.15;0.98;;;20.00;99.90;;;;;;4863223;28;89852;-41
2023/07/25 11:44:18;;;;;;;2.97;1.30;;;20.20;99.90;;;;;;4864026;28;90128;-32
2023/07/25 11:46:49;;;;;;;1.58;0.98;;;20.20;99.90;;;;;;4875142;28;90050;-37
2023/07/25 11:49:16;;;;;;;3.22;1.40;;;20.20;99.90;;;;;;4876215;28;90158;-32
2023/07/25 11:51:42;;;;;;;6.80;2.47;;;20.00;99.90;;;;;;4886959;28;88447;-38
2023/07/25 11:54:08;;;;;;;5.63;1.10;;;19.90;99.90;;;;;;4876726;28;90231;-33
2023/07/25 11:56:35;;;;;;;5.32;1.63;;;19.90;99.90;;;;;;4883074;28;89858;-35
2023/07/25 11:59:02;;;;;;;4.00;1.08;;;20.10;99.90;;;;;;4880904;28;88439;-34
2023/07/25 12:01:29;;;;;;;2.55;2.28;;;20.20;99.90;;;;;;4891975;28;90248;-36
2023/07/25 12:03:55;;;;;;;3.17;1.67;;;20.10;99.90;;;;;;4887805;28;89454;-38
2023/07/25 12:06:31;;;;;;;4.13;1.70;;;20.10;99.90;;;;;;4890166;28;89827;-35
2023/07/25 12:08:58;;;;;;;2.50;1.48;;;20.20;99.90;;;;;;4898556;28;89233;-39
2023/07/25 12:11:23;;;;;;;2.67;1.45;;;20.30;99.90;;;;;;4889073;28;90598;-36
2023/07/25 12:13:50;;;;;;;2.15;1.38;;;20.30;99.90;;;;;;4886136;28;89434;-35
2023/07/25 12:16:35;;;;;;;4.70;1.40;;;20.10;99.90;;;;;;4889079;28;89940;-32
2023/07/25 12:19:07;;;;;;;3.15;1.95;;;20.20;99.90;;;;;;4871715;28;89541;-34
2023/07/25 12:21:34;;;;;;;1.95;1.25;;;20.20;99.90;;;;;;4894836;28;90960;-41
2023/07/25 12:24:03;;;;;;;2.97;1.52;;;20.30;99.90;;;;;;4890034;28;90978;-34
2023/07/25 12:26:38;;;;;;;3.53;1.73;;;20.20;98.80;;;;;;4884337;28;90241;-37
2023/07/25 12:29:18;;;;;;;5.95;1.40;;;20.00;99.90;;;;;;4887331;28;87646;-34
2023/07/25 12:31:44;;;;;;;1.30;1.20;;;19.90;99.90;;;;;;4874667;28;90261;-36
2023/07/25 12:34:11;;;;;;;2.28;1.38;;;19.60;99.90;;;;;;4873494;28;91700;-33
2023/07/25 12:36:37;;;;;;;2.00;1.30;;;19.40;99.30;;;;;;4876843;28;89917;-35
2023/07/25 12:39:03;;;;;;;3.25;1.58;;;19.30;99.90;;;;;;4874436;28;89968;-36
2023/07/25 12:41:29;;;;;;;2.63;1.63;;;19.30;99.90;;;;;;4879622;28;90788;-40
2023/07/25 12:43:54;;;;;;;4.85;1.10;;;19.30;99.90;;;;;;4875646;28;89418;-38
2023/07/25 12:46:20;;;;;;;4.00;1.38;;;19.40;99.90;;;;;;4868864;28;89302;-35